createdAt,value
2022-11-30T00:01:36.070Z,98276.96
2022-11-30T00:04:04.121Z,98272.02
2022-11-30T00:06:32.099Z,98272.41
2022-11-30T00:09:00.253Z,98270.92
2022-11-30T00:11:28.705Z,98270.77
2022-11-30T00:13:58.919Z,98272.94
2022-11-30T00:16:27.684Z,98274.13
2022-11-30T00:18:55.826Z,98278.05
2022-11-30T00:21:26.158Z,98276.97
2022-11-30T00:23:55.162Z,98273.82
2022-11-30T00:26:23.359Z,98271.58
2022-11-30T00:28:51.994Z,98275.45
2022-11-30T00:31:21.087Z,98270.27
2022-11-30T00:33:49.208Z,98267.56
2022-11-30T00:36:22.092Z,98263.77
2022-11-30T00:38:52.011Z,98260.40
2022-11-30T00:41:21.306Z,98258.40
2022-11-30T00:43:49.216Z,98254.25
2022-11-30T00:46:17.423Z,98252.75
2022-11-30T00:48:45.645Z,98253.34
2022-11-30T00:51:14.384Z,98249.87
2022-11-30T00:53:42.696Z,98252.88
2022-11-30T00:56:11.305Z,98254.72
2022-11-30T00:58:40.166Z,98247.08
2022-11-30T01:01:08.782Z,98244.74
2022-11-30T01:03:37.889Z,98246.55
2022-11-30T01:06:08.323Z,98247.40
2022-11-30T01:08:37.354Z,98244.62
2022-11-30T01:11:14.880Z,98239.20
2022-11-30T01:13:42.848Z,98241.06
2022-11-30T01:16:15.680Z,98239.04
2022-11-30T01:18:44.559Z,98237.80
2022-11-30T01:21:16.389Z,98241.33
2022-11-30T01:23:45.468Z,98244.23
2022-11-30T01:26:14.794Z,98244.23
2022-11-30T01:28:44.297Z,98243.23
2022-11-30T01:31:14.657Z,98244.98
2022-11-30T01:33:43.301Z,98245.31
2022-11-30T01:36:18.060Z,98245.92
2022-11-30T01:38:51.344Z,98246.77
2022-11-30T01:41:23.563Z,98246.36
2022-11-30T01:44:19.778Z,98249.52
2022-11-30T01:47:08.972Z,98257.14
2022-11-30T01:49:41.557Z,98259.08
2022-11-30T01:52:13.853Z,98259.51
2022-11-30T01:54:51.921Z,98258.98
2022-11-30T01:57:38.847Z,98259.74
2022-11-30T02:00:11.209Z,98260.12
2022-11-30T02:02:47.994Z,98260.73
2022-11-30T02:05:18.207Z,98264.95
2022-11-30T02:07:46.475Z,98267.85
2022-11-30T02:10:18.214Z,98268.09
2022-11-30T02:13:08.244Z,98263.36
2022-11-30T02:16:08.436Z,98262.71
2022-11-30T02:19:06.392Z,98265.98
2022-11-30T02:21:46.422Z,98266.18
2022-11-30T02:24:52.151Z,98263.88
2022-11-30T02:27:43.882Z,98263.17
2022-11-30T02:30:16.951Z,98264.17
2022-11-30T02:32:51.882Z,98268.05
2022-11-30T02:35:25.135Z,98264.99
2022-11-30T02:37:56.380Z,98261.71
2022-11-30T02:40:24.530Z,98260.85
2022-11-30T02:42:55.954Z,98261.42
2022-11-30T02:45:49.195Z,98262.38
2022-11-30T02:48:24.073Z,98263.39
2022-11-30T02:50:57.819Z,98264.35
2022-11-30T02:53:26.274Z,98264.49
2022-11-30T02:55:54.863Z,98266.66
2022-11-30T02:58:22.946Z,98271.83
2022-11-30T03:00:50.930Z,98271.95
2022-11-30T03:03:18.897Z,98270.56
2022-11-30T03:05:48.092Z,98277.33
2022-11-30T03:08:16.004Z,98277.10
2022-11-30T03:10:44.059Z,98276.49
2022-11-30T03:13:12.282Z,98275.10
2022-11-30T03:15:40.294Z,98276.59
2022-11-30T03:18:08.277Z,98282.89
2022-11-30T03:20:43.543Z,98284.98
2022-11-30T03:23:11.817Z,98287.24
2022-11-30T03:25:39.782Z,98292.78
2022-11-30T03:28:08.058Z,98290.83
2022-11-30T03:30:36.060Z,98290.98
2022-11-30T03:33:05.298Z,98287.16
2022-11-30T03:35:33.283Z,98286.98
2022-11-30T03:38:03.474Z,98284.70
2022-11-30T03:40:31.488Z,98287.73
2022-11-30T03:43:00.003Z,98289.44
2022-11-30T03:45:28.142Z,98295.48
2022-11-30T03:47:56.387Z,98290.79
2022-11-30T03:50:24.338Z,98293.02
2022-11-30T03:52:52.347Z,98297.16
2022-11-30T03:55:20.231Z,98293.81
2022-11-30T03:57:48.145Z,98290.30
2022-11-30T04:00:18.130Z,98292.92
2022-11-30T04:02:47.277Z,98291.27
2022-11-30T04:05:15.371Z,98295.10
2022-11-30T04:07:43.528Z,98290.31
2022-11-30T04:10:11.783Z,98288.34
2022-11-30T04:12:39.793Z,98290.23
2022-11-30T04:15:09.147Z,98289.42
2022-11-30T04:17:37.084Z,98291.17
2022-11-30T04:20:05.872Z,98293.23
2022-11-30T04:22:34.104Z,98291.43
2022-11-30T04:25:02.043Z,98296.63
2022-11-30T04:27:30.014Z,98297.33
2022-11-30T04:29:57.989Z,98300.55
2022-11-30T04:32:25.949Z,98298.30
2022-11-30T04:34:55.294Z,98302.90
2022-11-30T04:37:23.199Z,98302.02
2022-11-30T04:39:51.275Z,98300.20
2022-11-30T04:42:19.328Z,98298.17
2022-11-30T04:44:47.506Z,98297.85
2022-11-30T04:47:15.852Z,98298.50
2022-11-30T04:49:43.868Z,98297.01
2022-11-30T04:52:12.833Z,98298.86
2022-11-30T04:54:40.773Z,98299.31
2022-11-30T04:57:09.297Z,98303.27
2022-11-30T04:59:37.437Z,98304.85
2022-11-30T05:02:05.491Z,98300.73
2022-11-30T05:04:33.659Z,98300.67
2022-11-30T05:07:01.627Z,98297.17
2022-11-30T05:09:29.602Z,98298.87
2022-11-30T05:11:57.627Z,98298.46
2022-11-30T05:14:27.199Z,98303.30
2022-11-30T05:16:55.185Z,98300.60
2022-11-30T05:19:23.089Z,98296.45
2022-11-30T05:21:51.113Z,98297.26
2022-11-30T05:24:19.972Z,98296.91
2022-11-30T05:26:47.902Z,98299.39
2022-11-30T05:29:15.844Z,98300.30
2022-11-30T05:31:43.895Z,98304.59
2022-11-30T05:34:12.098Z,98304.09
2022-11-30T05:36:40.144Z,98303.45
2022-11-30T05:39:08.621Z,98305.70
2022-11-30T05:41:37.639Z,98304.50
2022-11-30T05:44:06.877Z,98301.58
2022-11-30T05:46:38.327Z,98304.63
2022-11-30T05:49:08.770Z,98305.06
2022-11-30T05:51:36.769Z,98304.94
2022-11-30T05:54:04.867Z,98309.84
2022-11-30T05:56:33.156Z,98313.28
2022-11-30T05:59:01.135Z,98315.06
2022-11-30T06:01:30.089Z,98318.14
2022-11-30T06:03:58.209Z,98318.47
2022-11-30T06:06:26.236Z,98320.68
2022-11-30T06:08:54.622Z,98318.60
2022-11-30T06:11:22.671Z,98321.11
2022-11-30T06:13:50.739Z,98323.85
2022-11-30T06:16:19.051Z,98329.85
2022-11-30T06:18:47.214Z,98328.85
2022-11-30T06:21:19.636Z,98327.57
2022-11-30T06:23:50.774Z,98333.29
2022-11-30T06:26:19.336Z,98337.41
2022-11-30T06:28:48.868Z,98341.10
2022-11-30T06:31:18.430Z,98346.67
2022-11-30T06:33:46.396Z,98356.20
2022-11-30T06:36:14.454Z,98351.15
2022-11-30T06:38:42.921Z,98350.53
2022-11-30T06:41:12.622Z,98354.73
2022-11-30T06:43:41.188Z,98356.04
2022-11-30T06:46:09.722Z,98352.90
2022-11-30T06:48:38.559Z,98350.98
2022-11-30T06:51:09.940Z,98347.16
2022-11-30T06:53:38.313Z,98347.80
2022-11-30T06:56:10.386Z,98346.16
2022-11-30T06:58:40.174Z,98342.19
2022-11-30T07:01:15.436Z,98346.10
2022-11-30T07:03:44.670Z,98344.31
2022-11-30T07:06:14.176Z,98342.40
2022-11-30T07:08:43.446Z,98344.65
2022-11-30T07:11:12.813Z,98350.87
2022-11-30T07:13:41.120Z,98354.82
2022-11-30T07:16:11.572Z,98353.19
2022-11-30T07:18:42.693Z,98352.65
2022-11-30T07:21:12.658Z,98348.97
2022-11-30T07:23:58.983Z,98349.87
2022-11-30T07:26:28.978Z,98350.54
2022-11-30T07:28:59.146Z,98351.55
2022-11-30T07:31:29.943Z,98348.20
2022-11-30T07:33:59.547Z,98349.71
2022-11-30T07:36:27.995Z,98347.09
2022-11-30T07:38:56.057Z,98344.99
2022-11-30T07:41:26.332Z,98343.64
2022-11-30T07:43:55.818Z,98338.63
2022-11-30T07:46:24.000Z,98338.23
2022-11-30T07:48:53.446Z,98334.67
2022-11-30T07:51:22.999Z,98337.91
2022-11-30T07:53:51.563Z,98338.19
2022-11-30T07:56:20.858Z,98338.80
2022-11-30T07:58:58.185Z,98338.04
2022-11-30T08:01:29.274Z,98339.59
2022-11-30T08:04:14.345Z,98340.98
2022-11-30T08:06:42.849Z,98342.46
2022-11-30T08:09:14.266Z,98341.14
2022-11-30T08:11:46.055Z,98341.09
2022-11-30T08:14:14.088Z,98342.92
2022-11-30T08:16:44.302Z,98340.98
2022-11-30T08:19:12.292Z,98338.63
2022-11-30T08:21:41.125Z,98333.42
2022-11-30T08:24:11.963Z,98333.38
2022-11-30T08:26:40.310Z,98330.50
2022-11-30T08:29:11.084Z,98330.10
2022-11-30T08:31:39.768Z,98325.79
2022-11-30T08:34:10.751Z,98324.66
2022-11-30T08:36:40.665Z,98324.64
2022-11-30T08:39:09.290Z,98324.48
2022-11-30T08:41:39.281Z,98321.98
2022-11-30T08:44:07.496Z,98317.88
2022-11-30T08:46:51.656Z,98320.55
2022-11-30T08:52:19.170Z,98321.33
2022-11-30T08:54:48.592Z,98321.89
2022-11-30T08:57:19.736Z,98319.44
2022-11-30T08:59:48.122Z,98323.19
2022-11-30T09:02:19.912Z,98317.27
2022-11-30T09:04:51.233Z,98313.73
2022-11-30T09:07:20.226Z,98312.64
2022-11-30T09:09:49.981Z,98312.52
2022-11-30T09:12:17.979Z,98309.48
2022-11-30T09:14:53.995Z,98308.04
2022-11-30T09:17:25.717Z,98304.83
2022-11-30T09:19:55.133Z,98298.66
2022-11-30T09:22:23.848Z,98296.14
2022-11-30T09:24:51.976Z,98292.16
2022-11-30T09:27:22.066Z,98292.26
2022-11-30T09:29:51.482Z,98287.73
2022-11-30T09:32:19.541Z,98290.41
2022-11-30T09:34:50.608Z,98290.01
2022-11-30T09:37:20.264Z,98289.63
2022-11-30T09:39:48.422Z,98290.06
2022-11-30T09:42:29.408Z,98287.06
2022-11-30T09:45:20.721Z,98286.85
2022-11-30T09:48:03.879Z,98284.09
2022-11-30T09:50:39.146Z,98280.42
2022-11-30T09:53:11.997Z,98277.98
2022-11-30T09:55:44.883Z,98274.77
2022-11-30T09:58:29.963Z,98270.20
2022-11-30T10:01:03.661Z,98266.52
2022-11-30T10:03:36.594Z,98268.12
2022-11-30T10:06:21.079Z,98263.89
2022-11-30T10:09:03.484Z,98261.09
2022-11-30T10:12:04.669Z,98255.92
2022-11-30T10:14:48.172Z,98252.98
2022-11-30T10:17:16.500Z,98250.99
2022-11-30T10:20:15.547Z,98246.92
2022-11-30T10:23:19.749Z,98247.45
2022-11-30T10:25:56.182Z,98245.82
2022-11-30T10:28:47.934Z,98248.34
2022-11-30T10:31:39.512Z,98243.63
2022-11-30T10:34:35.795Z,98242.94
2022-11-30T10:37:12.405Z,98237.81
2022-11-30T10:39:56.458Z,98231.28
2022-11-30T10:42:50.761Z,98233.02
2022-11-30T10:45:24.423Z,98232.98
2022-11-30T10:48:21.523Z,98232.25
2022-11-30T10:50:52.437Z,98232.46
2022-11-30T10:53:22.521Z,98232.73
2022-11-30T10:56:04.455Z,98235.38
2022-11-30T10:58:41.273Z,98230.30
2022-11-30T11:01:28.963Z,98230.64
2022-11-30T11:04:17.805Z,98235.57
2022-11-30T11:06:58.492Z,98231.95
2022-11-30T11:09:27.518Z,98230.91
2022-11-30T11:12:21.711Z,98229.92
2022-11-30T11:15:09.500Z,98231.78
2022-11-30T11:17:37.691Z,98229.16
2022-11-30T11:20:31.306Z,98223.55
2022-11-30T11:22:59.862Z,98222.23
2022-11-30T11:25:39.339Z,98223.85
2022-11-30T11:28:18.878Z,98222.17
2022-11-30T11:30:47.083Z,98222.02
2022-11-30T11:33:24.141Z,98220.16
2022-11-30T11:35:54.960Z,98224.59
2022-11-30T11:38:41.770Z,98221.58
2022-11-30T11:41:35.202Z,98222.04
2022-11-30T11:44:22.670Z,98219.08
2022-11-30T11:46:57.808Z,98213.95
2022-11-30T11:49:29.222Z,98220.23
2022-11-30T11:52:10.856Z,98215.45
2022-11-30T11:54:47.544Z,98212.90
2022-11-30T11:57:20.088Z,98209.34
2022-11-30T11:59:51.613Z,98208.80
2022-11-30T12:03:04.770Z,98208.88
2022-11-30T12:05:54.198Z,98202.94
2022-11-30T12:08:28.191Z,98202.20
2022-11-30T12:11:26.852Z,98198.63
2022-11-30T12:13:55.452Z,98199.34
2022-11-30T12:16:24.703Z,98203.06
2022-11-30T12:19:08.151Z,98201.52
2022-11-30T12:21:52.287Z,98200.09
2022-11-30T12:24:28.737Z,98196.94
2022-11-30T12:27:24.214Z,98200.44
2022-11-30T12:29:52.590Z,98198.95
2022-11-30T12:32:27.209Z,98197.89
2022-11-30T12:35:10.760Z,98201.65
2022-11-30T12:38:10.240Z,98202.02
2022-11-30T12:40:53.961Z,98204.18
2022-11-30T12:43:34.114Z,98202.91
2022-11-30T12:46:15.556Z,98200.96
2022-11-30T12:49:12.091Z,98197.88
2022-11-30T12:52:07.891Z,98190.39
2022-11-30T12:54:56.740Z,98190.17
2022-11-30T12:57:42.340Z,98189.91
2022-11-30T13:00:19.086Z,98192.06
2022-11-30T13:03:04.836Z,98191.05
2022-11-30T13:05:58.554Z,98191.44
2022-11-30T13:08:34.960Z,98191.23
2022-11-30T13:11:08.586Z,98193.61
2022-11-30T13:13:43.412Z,98188.67
2022-11-30T13:16:11.894Z,98185.80
2022-11-30T13:18:42.487Z,98188.84
2022-11-30T13:21:30.704Z,98193.70
2022-11-30T13:24:10.104Z,98194.23
2022-11-30T13:27:08.081Z,98196.95
2022-11-30T13:30:03.152Z,98198.86
2022-11-30T13:32:57.573Z,98198.68
2022-11-30T13:35:29.440Z,98195.07
2022-11-30T13:38:36.494Z,98195.65
2022-11-30T13:41:09.378Z,98197.84
2022-11-30T13:43:45.796Z,98199.56
2022-11-30T13:46:21.034Z,98203.96
2022-11-30T13:48:49.897Z,98202.58
2022-11-30T13:51:36.703Z,98204.40
2022-11-30T13:54:41.615Z,98205.95
2022-11-30T13:57:35.760Z,98204.77
2022-11-30T14:00:33.058Z,98201.62
2022-11-30T14:06:56.606Z,98210.32
2022-11-30T14:09:40.032Z,98204.25
2022-11-30T14:12:35.033Z,98200.02
2022-11-30T14:15:38.472Z,98199.46
2022-11-30T14:18:11.848Z,98191.93
2022-11-30T14:21:15.003Z,98192.09
2022-11-30T14:23:50.540Z,98193.59
2022-11-30T14:26:28.333Z,98188.14
2022-11-30T14:29:02.458Z,98185.70
2022-11-30T14:32:12.539Z,98188.73
2022-11-30T14:34:46.506Z,98186.84
2022-11-30T14:37:27.560Z,98182.33
2022-11-30T14:39:56.895Z,98186.59
2022-11-30T14:42:30.540Z,98188.97
2022-11-30T14:45:00.168Z,98190.10
2022-11-30T14:47:34.881Z,98189.38
2022-11-30T14:50:06.304Z,98190.16
2022-11-30T14:52:54.494Z,98188.88
2022-11-30T14:55:34.296Z,98189.61
2022-11-30T14:58:23.505Z,98192.44
2022-11-30T15:00:52.067Z,98201.13
2022-11-30T15:03:38.898Z,98201.92
2022-11-30T15:06:08.788Z,98197.84
2022-11-30T15:08:48.360Z,98195.81
2022-11-30T15:11:17.913Z,98195.29
2022-11-30T15:13:55.994Z,98199.23
2022-11-30T15:16:25.968Z,98203.69
2022-11-30T15:18:56.654Z,98199.37
2022-11-30T15:21:28.821Z,98195.52
2022-11-30T15:24:01.595Z,98193.56
2022-11-30T15:26:48.921Z,98191.17
2022-11-30T15:29:26.567Z,98195.20
2022-11-30T15:31:58.495Z,98190.88
2022-11-30T15:34:57.650Z,98192.02
2022-11-30T15:37:38.573Z,98190.87
2022-11-30T15:40:09.977Z,98186.95
2022-11-30T15:42:40.707Z,98185.66
2022-11-30T15:45:31.791Z,98190.52
2022-11-30T15:48:02.765Z,98193.24
2022-11-30T15:50:37.342Z,98197.84
2022-11-30T15:53:23.224Z,98206.34
2022-11-30T15:55:55.408Z,98204.94
2022-11-30T15:58:45.900Z,98204.77
2022-11-30T16:01:25.194Z,98203.94
2022-11-30T16:03:56.600Z,98205.10
2022-11-30T16:06:28.165Z,98204.02
2022-11-30T16:08:57.329Z,98205.57
2022-11-30T16:11:25.847Z,98206.77
2022-11-30T16:13:57.364Z,98210.90
2022-11-30T16:16:31.115Z,98210.63
2022-11-30T16:18:59.503Z,98208.67
2022-11-30T16:21:28.552Z,98208.46
2022-11-30T16:23:58.525Z,98211.05
2022-11-30T16:29:15.846Z,98210.90
2022-11-30T16:31:46.475Z,98212.40
2022-11-30T16:34:14.609Z,98216.83
2022-11-30T16:36:42.748Z,98214.80
2022-11-30T16:39:13.439Z,98211.66
2022-11-30T16:41:42.505Z,98212.06
2022-11-30T16:44:14.486Z,98211.13
2022-11-30T16:46:42.701Z,98208.66
2022-11-30T16:49:11.185Z,98210.11
2022-11-30T16:51:41.956Z,98212.31
2022-11-30T16:54:16.723Z,98214.73
2022-11-30T16:56:47.683Z,98209.71
2022-11-30T16:59:16.975Z,98210.97
2022-11-30T17:01:53.572Z,98218.23
2022-11-30T17:04:23.279Z,98216.23
2022-11-30T17:06:57.175Z,98213.98
2022-11-30T17:09:31.146Z,98215.25
2022-11-30T17:11:59.263Z,98214.27
2022-11-30T17:14:28.135Z,98214.98
2022-11-30T17:16:56.466Z,98211.98
2022-11-30T17:19:27.553Z,98211.90
2022-11-30T17:21:56.270Z,98209.62
2022-11-30T17:24:24.647Z,98205.87
2022-11-30T17:27:00.956Z,98213.58
2022-11-30T17:29:30.968Z,98210.10
2022-11-30T17:32:00.400Z,98211.00
2022-11-30T17:34:28.557Z,98211.87
2022-11-30T17:36:57.286Z,98215.57
2022-11-30T17:39:26.535Z,98218.02
2022-11-30T17:41:55.127Z,98217.26
2022-11-30T17:44:25.986Z,98220.83
2022-11-30T17:46:54.340Z,98222.57
2022-11-30T17:49:23.686Z,98221.60
2022-11-30T17:51:51.828Z,98221.70
2022-11-30T17:54:21.568Z,98220.48
2022-11-30T17:56:50.181Z,98223.65
2022-11-30T17:59:19.481Z,98220.60
2022-11-30T18:01:48.402Z,98223.61
2022-11-30T18:04:18.733Z,98225.81
2022-11-30T18:06:46.793Z,98224.41
2022-11-30T18:09:14.971Z,98224.88
2022-11-30T18:11:42.991Z,98225.13
2022-11-30T18:14:11.653Z,98230.09
2022-11-30T18:16:42.148Z,98230.92
2022-11-30T18:19:14.801Z,98231.58
2022-11-30T18:21:46.171Z,98237.06
2022-11-30T18:24:14.515Z,98240.14
2022-11-30T18:26:42.519Z,98239.41
2022-11-30T18:29:11.179Z,98244.56
2022-11-30T18:31:39.425Z,98244.45
2022-11-30T18:34:07.763Z,98244.83
2022-11-30T18:36:36.813Z,98243.34
2022-11-30T18:39:05.539Z,98252.52
2022-11-30T18:41:33.638Z,98257.76
2022-11-30T18:44:01.739Z,98258.86
2022-11-30T18:46:33.337Z,98265.20
2022-11-30T18:49:04.154Z,98261.78
2022-11-30T18:51:32.965Z,98262.48
2022-11-30T18:54:05.112Z,98260.48
2022-11-30T18:56:36.938Z,98260.70
2022-11-30T18:59:09.102Z,98257.89
2022-11-30T19:01:37.484Z,98255.66
2022-11-30T19:04:08.676Z,98262.61
2022-11-30T19:06:40.520Z,98262.67
2022-11-30T19:09:12.173Z,98265.05
2022-11-30T19:11:41.701Z,98267.53
2022-11-30T19:14:14.247Z,98263.96
2022-11-30T19:16:46.008Z,98268.27
2022-11-30T19:19:15.489Z,98271.86
2022-11-30T19:21:47.383Z,98276.30
2022-11-30T19:24:17.474Z,98278.19
2022-11-30T19:26:46.294Z,98287.23
2022-11-30T19:29:15.160Z,98291.21
2022-11-30T19:31:43.892Z,98290.45
2022-11-30T19:34:13.161Z,98291.27
2022-11-30T19:36:42.007Z,98294.06
2022-11-30T19:39:11.280Z,98297.41
2022-11-30T19:41:39.375Z,98296.70
2022-11-30T19:44:13.524Z,98298.29
2022-11-30T19:46:42.001Z,98297.45
2022-11-30T19:49:11.732Z,98304.25
2022-11-30T19:51:43.390Z,98300.91
2022-11-30T19:54:11.600Z,98300.06
2022-11-30T19:56:41.950Z,98298.97
2022-11-30T19:59:10.497Z,98296.95
2022-11-30T20:01:39.104Z,98291.33
2022-11-30T20:04:07.444Z,98288.46
2022-11-30T20:06:37.685Z,98285.64
2022-11-30T20:09:10.430Z,98289.16
2022-11-30T20:11:38.834Z,98284.11
2022-11-30T20:14:07.181Z,98287.75
2022-11-30T20:16:36.094Z,98286.58
2022-11-30T20:19:04.332Z,98284.71
2022-11-30T20:21:34.866Z,98285.95
2022-11-30T20:24:06.928Z,98282.23
2022-11-30T20:26:38.949Z,98276.73
2022-11-30T20:29:15.136Z,98278.12
2022-11-30T20:31:45.376Z,98281.52
2022-11-30T20:34:17.219Z,98283.59
2022-11-30T20:36:45.572Z,98285.98
2022-11-30T20:39:15.212Z,98284.40
2022-11-30T20:41:43.976Z,98284.05
2022-11-30T20:44:16.524Z,98284.76
2022-11-30T20:46:44.611Z,98287.36
2022-11-30T20:49:17.775Z,98287.58
2022-11-30T20:51:46.931Z,98283.67
2022-11-30T20:54:16.631Z,98284.20
2022-11-30T20:56:47.767Z,98288.02
2022-11-30T20:59:23.735Z,98290.79
2022-11-30T21:01:54.446Z,98289.52
2022-11-30T21:04:24.728Z,98292.68
2022-11-30T21:06:54.351Z,98293.58
2022-11-30T21:09:22.547Z,98291.41
2022-11-30T21:11:50.551Z,98294.70
2022-11-30T21:14:18.653Z,98299.78
2022-11-30T21:16:48.282Z,98301.00
2022-11-30T21:19:16.783Z,98298.96
2022-11-30T21:21:45.001Z,98298.71
2022-11-30T21:24:13.114Z,98297.29
2022-11-30T21:26:43.451Z,98298.13
2022-11-30T21:29:14.419Z,98301.50
2022-11-30T21:31:43.354Z,98308.09
2022-11-30T21:34:12.267Z,98311.20
2022-11-30T21:36:40.827Z,98306.70
2022-11-30T21:39:09.088Z,98311.35
2022-11-30T21:41:39.359Z,98307.28
2022-11-30T21:44:10.621Z,98307.02
2022-11-30T21:46:40.272Z,98312.88
2022-11-30T21:49:10.115Z,98318.05
2022-11-30T21:51:38.338Z,98314.73
2022-11-30T21:54:10.028Z,98313.61
2022-11-30T21:56:40.592Z,98314.89
2022-11-30T21:59:09.896Z,98320.24
2022-11-30T22:01:42.707Z,98318.02
2022-11-30T22:04:12.310Z,98314.16
2022-11-30T22:06:43.389Z,98309.45
2022-11-30T22:09:14.344Z,98310.72
2022-11-30T22:11:45.111Z,98305.64
2022-11-30T22:14:16.051Z,98301.90
2022-11-30T22:16:45.033Z,98308.16
2022-11-30T22:19:15.496Z,98308.14
2022-11-30T22:21:49.425Z,98308.84
2022-11-30T22:24:18.642Z,98302.50
2022-11-30T22:26:49.313Z,98307.13
2022-11-30T22:29:22.559Z,98305.33
2022-11-30T22:31:53.370Z,98306.85
2022-11-30T22:34:21.480Z,98301.36
2022-11-30T22:36:50.693Z,98303.02
2022-11-30T22:39:21.398Z,98300.10
2022-11-30T22:41:55.251Z,98299.77
2022-11-30T22:44:25.749Z,98302.67
2022-11-30T22:46:53.884Z,98298.44
2022-11-30T22:49:22.367Z,98295.48
2022-11-30T22:51:51.138Z,98291.27
2022-11-30T22:54:19.270Z,98290.45
2022-11-30T22:56:47.401Z,98292.20
2022-11-30T22:59:15.929Z,98287.73
2022-11-30T23:01:49.608Z,98288.20
2022-11-30T23:04:20.422Z,98285.59
2022-11-30T23:06:49.877Z,98286.94
2022-11-30T23:09:21.765Z,98291.00
2022-11-30T23:11:51.315Z,98293.78
2022-11-30T23:14:20.001Z,98293.05
2022-11-30T23:16:48.255Z,98296.00
2022-11-30T23:19:16.700Z,98298.67
2022-11-30T23:21:46.010Z,98296.17
2022-11-30T23:24:20.307Z,98295.41
2022-11-30T23:26:49.441Z,98298.09
2022-11-30T23:29:18.172Z,98293.95
2022-11-30T23:31:47.864Z,98292.34
2022-11-30T23:34:21.394Z,98292.16
2022-11-30T23:36:50.998Z,98287.02
2022-11-30T23:39:19.939Z,98289.66
2022-11-30T23:41:49.082Z,98293.04
2022-11-30T23:44:17.343Z,98294.31
2022-11-30T23:46:45.548Z,98293.15
2022-11-30T23:49:14.388Z,98295.06
2022-11-30T23:51:43.214Z,98294.06
2022-11-30T23:54:11.403Z,98292.91
2022-11-30T23:56:39.613Z,98293.27
2022-11-30T23:59:07.826Z,98297.35
